Time;durP1;ratioP1;P1;durP2;ratioP2;P2;SDS_P1;SDS_P2;PMS_P1;PMS_P2;Temp;Humidity;BMP_temperature;BMP_pressure;BME280_temperature;BME280_humidity;BME280_pressure;Samples;Min_cycle;Max_cycle;Signal;HPM_P1;HPM_P2
2021/12/11 00:00:31;;;;;;;23.10;13.73;;;-1.30;99.90;;;;;;5010681;28;20406;-34
2021/12/11 00:03:00;;;;;;;24.63;15.80;;;-1.20;99.90;;;;;;4994648;28;20120;-35
2021/12/11 00:05:27;;;;;;;24.65;15.13;;;-1.20;99.90;;;;;;5012761;28;20086;-34
2021/12/11 00:07:54;;;;;;;21.63;14.05;;;-1.20;99.90;;;;;;5010741;28;20046;-34
2021/12/11 00:10:24;;;;;;;25.25;14.82;;;-1.30;99.90;;;;;;4994461;28;20049;-34
2021/12/11 00:12:54;;;;;;;22.80;13.52;;;-1.30;99.90;;;;;;5012413;28;20046;-34
2021/12/11 00:15:24;;;;;;;21.63;12.02;;;-1.20;99.90;;;;;;4994961;28;20428;-34
2021/12/11 00:17:57;;;;;;;20.70;11.98;;;-1.30;99.90;;;;;;5011517;28;20447;-34
2021/12/11 00:20:25;;;;;;;26.17;14.32;;;-1.30;99.90;;;;;;4995002;28;20058;-34
2021/12/11 00:22:53;;;;;;;22.55;13.43;;;-1.30;99.90;;;;;;5012331;28;20516;-34
2021/12/11 00:25:20;;;;;;;26.17;13.52;;;-1.30;99.90;;;;;;4994423;28;20085;-34
2021/12/11 00:27:48;;;;;;;21.98;14.15;;;-1.30;99.90;;;;;;4994553;28;20080;-34
2021/12/11 00:30:28;;;;;;;18.92;13.23;;;-1.40;99.90;;;;;;5011832;28;20073;-34
2021/12/11 00:32:59;;;;;;;19.77;12.52;;;-1.40;99.90;;;;;;5012187;28;20426;-34
2021/12/11 00:35:26;;;;;;;25.77;13.38;;;-1.40;99.90;;;;;;5012472;28;20079;-34
2021/12/11 00:37:53;;;;;;;21.95;12.90;;;-1.40;99.90;;;;;;4997270;28;20457;-34
2021/12/11 00:40:22;;;;;;;23.08;13.23;;;-1.40;99.90;;;;;;4998259;28;20130;-34
2021/12/11 00:42:49;;;;;;;21.98;13.52;;;-1.50;99.90;;;;;;4997690;28;20135;-34
2021/12/11 00:45:19;;;;;;;20.92;13.27;;;-1.50;99.90;;;;;;4987838;28;20046;-33
2021/12/11 00:47:50;;;;;;;20.35;12.43;;;-1.50;99.90;;;;;;4990104;28;20061;-35
2021/12/11 00:50:17;;;;;;;23.80;15.48;;;-1.50;99.90;;;;;;5015551;28;20050;-33
2021/12/11 00:52:46;;;;;;;22.70;14.07;;;-1.50;99.90;;;;;;5013529;28;20056;-33
2021/12/11 00:55:19;;;;;;;24.30;14.32;;;-1.50;99.90;;;;;;5015282;28;20104;-33
2021/12/11 00:57:50;;;;;;;22.60;14.40;;;-1.50;99.90;;;;;;5015024;28;20081;-33
2021/12/11 01:00:20;;;;;;;21.08;14.10;;;-1.50;99.90;;;;;;4998223;28;20057;-34
2021/12/11 01:02:51;;;;;;;22.85;13.68;;;-1.50;99.90;;;;;;4997115;28;20077;-34
2021/12/11 01:05:18;;;;;;;27.58;14.77;;;-1.50;99.90;;;;;;5014912;28;20108;-33
2021/12/11 01:07:45;;;;;;;21.30;12.38;;;-1.50;99.90;;;;;;4995831;28;20061;-33
2021/12/11 01:10:14;;;;;;;18.95;12.30;;;-1.50;99.90;;;;;;4997250;28;20391;-33
2021/12/11 01:12:46;;;;;;;23.38;13.27;;;-1.60;99.90;;;;;;4997436;28;20058;-33
2021/12/11 01:15:14;;;;;;;;;;;-1.60;99.90;;;;;;5015610;28;20489;-33
2021/12/11 01:17:57;;;;;;;20.38;12.68;;;-1.60;99.90;;;;;;5014867;28;19931;-33
2021/12/11 01:20:34;;;;;;;21.00;12.48;;;-1.60;99.90;;;;;;5011969;28;20052;-34
2021/12/11 01:23:02;;;;;;;20.52;11.63;;;-1.60;99.90;;;;;;5014137;28;20153;-34
2021/12/11 01:25:29;;;;;;;21.10;12.15;;;-1.60;99.90;;;;;;5014802;28;20129;-35
2021/12/11 01:27:57;;;;;;;21.35;11.75;;;-1.60;99.90;;;;;;4997269;28;20060;-37
2021/12/11 01:30:26;;;;;;;25.35;14.10;;;-1.60;99.90;;;;;;5014307;28;20517;-35
2021/12/11 01:32:53;;;;;;;23.10;12.30;;;-1.70;99.90;;;;;;5014341;28;20052;-35
2021/12/11 01:35:20;;;;;;;24.08;14.38;;;-1.70;99.90;;;;;;4997131;28;20428;-38
2021/12/11 01:37:50;;;;;;;27.10;15.07;;;-1.70;99.90;;;;;;5014190;28;20383;-36
2021/12/11 01:40:21;;;;;;;26.33;14.73;;;-1.70;99.90;;;;;;4997242;28;20514;-34
2021/12/11 01:42:48;;;;;;;25.30;14.75;;;-1.70;99.90;;;;;;5013208;28;20049;-34
2021/12/11 01:45:16;;;;;;;20.73;12.85;;;-1.70;99.90;;;;;;4996814;28;20136;-35
2021/12/11 01:47:45;;;;;;;25.23;15.35;;;-1.70;99.90;;;;;;5013851;28;20061;-34
2021/12/11 01:50:14;;;;;;;19.67;12.18;;;-1.70;99.90;;;;;;5014089;28;20060;-34
2021/12/11 01:52:44;;;;;;;20.63;12.98;;;-1.70;99.90;;;;;;5014033;28;20086;-35
2021/12/11 01:55:15;;;;;;;20.73;13.07;;;-1.80;99.90;;;;;;5014244;28;20050;-35
2021/12/11 01:57:42;;;;;;;21.70;13.52;;;-1.80;99.90;;;;;;5013891;28;20128;-34
2021/12/11 02:00:11;;;;;;;18.42;12.00;;;-1.80;99.90;;;;;;4995868;28;20085;-34
2021/12/11 02:02:41;;;;;;;20.00;12.35;;;-1.80;99.90;;;;;;4996187;28;20096;-35
2021/12/11 02:05:08;;;;;;;23.02;12.63;;;-1.90;99.90;;;;;;5013888;28;20049;-34
2021/12/11 02:07:38;;;;;;;22.98;12.57;;;-1.90;99.90;;;;;;5013637;28;20502;-34
2021/12/11 02:10:10;;;;;;;18.67;12.32;;;-1.90;99.90;;;;;;5013583;28;20053;-35
2021/12/11 02:12:42;;;;;;;29.05;14.13;;;-1.90;99.90;;;;;;5012881;28;20054;-34
2021/12/11 02:15:11;;;;;;;19.60;11.73;;;-1.90;99.90;;;;;;4996239;28;20053;-35
2021/12/11 02:17:42;;;;;;;23.67;12.55;;;-1.90;99.90;;;;;;5013745;28;20053;-35
2021/12/11 02:20:10;;;;;;;25.27;14.40;;;-1.90;99.90;;;;;;5013013;28;20136;-37
2021/12/11 02:22:43;;;;;;;20.20;12.45;;;-1.90;99.90;;;;;;4996438;28;20104;-34
2021/12/11 02:25:11;;;;;;;25.40;14.68;;;-2.00;99.90;;;;;;5013847;28;20046;-35
2021/12/11 02:27:44;;;;;;;30.98;15.02;;;-2.00;99.90;;;;;;5013766;28;20089;-34
2021/12/11 02:30:18;;;;;;;22.70;12.00;;;-2.00;99.90;;;;;;5012520;28;20546;-34
2021/12/11 02:32:47;;;;;;;22.58;13.55;;;-2.10;99.90;;;;;;4995200;28;20104;-33
2021/12/11 02:35:17;;;;;;;25.35;12.75;;;-2.10;99.90;;;;;;5013860;28;20133;-34
2021/12/11 02:37:47;;;;;;;24.20;14.82;;;-2.00;99.90;;;;;;5013544;28;20056;-34
2021/12/11 02:40:18;;;;;;;28.48;16.02;;;-2.00;99.90;;;;;;5012386;28;20060;-34
2021/12/11 02:42:47;;;;;;;28.75;15.15;;;-2.10;99.90;;;;;;4995398;28;20068;-34
2021/12/11 02:45:17;;;;;;;18.50;11.98;;;-2.10;99.90;;;;;;5012794;28;20066;-34
2021/12/11 02:47:46;;;;;;;27.00;15.18;;;-2.10;99.90;;;;;;5012885;28;20053;-33
2021/12/11 02:50:14;;;;;;;29.95;16.35;;;-2.10;99.90;;;;;;5012630;28;20637;-33
2021/12/11 02:52:43;;;;;;;26.98;15.77;;;-2.20;99.90;;;;;;5013167;28;20096;-34
2021/12/11 02:55:14;;;;;;;32.60;15.32;;;-2.10;99.90;;;;;;5013000;28;20056;-36
2021/12/11 02:57:44;;;;;;;23.13;13.30;;;-2.10;99.90;;;;;;5013713;28;20133;-34
2021/12/11 03:00:13;;;;;;;20.75;13.93;;;-2.20;99.90;;;;;;5012084;28;20064;-35
2021/12/11 03:02:46;;;;;;;25.58;14.55;;;-2.20;99.90;;;;;;5001396;28;20137;-34
2021/12/11 03:05:15;;;;;;;18.00;12.25;;;-2.20;99.90;;;;;;4993090;28;20060;-34
2021/12/11 03:07:49;;;;;;;20.25;11.98;;;-2.20;99.90;;;;;;4994627;28;20406;-35
2021/12/11 03:10:20;;;;;;;22.35;12.35;;;-2.20;99.90;;;;;;5012633;28;20315;-35
2021/12/11 03:12:47;;;;;;;21.70;12.88;;;-2.20;99.90;;;;;;5012423;28;20050;-35
2021/12/11 03:15:14;;;;;;;19.38;11.98;;;-2.20;99.90;;;;;;5012965;28;20089;-34
2021/12/11 03:17:41;;;;;;;19.42;12.85;;;-2.30;99.90;;;;;;5013084;28;20486;-34
2021/12/11 03:20:12;;;;;;;21.38;12.60;;;-2.30;99.90;;;;;;5012486;28;20053;-34
2021/12/11 03:22:41;;;;;;;23.40;11.97;;;-2.30;99.90;;;;;;5012492;28;20137;-35
2021/12/11 03:25:09;;;;;;;19.73;12.45;;;-2.30;99.90;;;;;;5012541;28;20297;-34
2021/12/11 03:27:37;;;;;;;23.20;11.93;;;-2.30;99.90;;;;;;4995023;28;20112;-34
2021/12/11 03:30:05;;;;;;;21.48;12.43;;;-2.30;99.90;;;;;;5012640;28;20085;-33
2021/12/11 03:32:32;;;;;;;23.40;12.57;;;-2.40;99.90;;;;;;5012302;28;20148;-35
2021/12/11 03:34:59;;;;;;;23.25;12.63;;;-2.30;99.90;;;;;;5012064;28;20073;-37
2021/12/11 03:37:27;;;;;;;23.77;12.40;;;-2.40;99.90;;;;;;4995298;28;20081;-34
2021/12/11 03:39:54;;;;;;;25.02;14.07;;;-2.30;99.90;;;;;;5012597;28;20494;-34
2021/12/11 03:42:25;;;;;;;27.80;16.13;;;-2.40;99.90;;;;;;5012160;28;20046;-34
2021/12/11 03:44:53;;;;;;;28.90;15.70;;;-2.30;99.90;;;;;;5012527;28;20053;-34
2021/12/11 03:47:28;;;;;;;23.15;13.60;;;-2.40;99.90;;;;;;5012059;28;20104;-34
2021/12/11 03:49:56;;;;;;;21.17;11.82;;;-2.30;99.90;;;;;;4994661;28;20125;-35
2021/12/11 03:52:23;;;;;;;26.15;14.15;;;-2.30;99.90;;;;;;5012300;28;20050;-34
2021/12/11 03:54:51;;;;;;;23.98;14.07;;;-2.30;99.90;;;;;;4995095;28;20042;-35
2021/12/11 03:57:20;;;;;;;23.45;14.45;;;-2.40;99.90;;;;;;4995505;28;20384;-34
2021/12/11 03:59:48;;;;;;;21.70;11.98;;;-2.40;99.90;;;;;;4994070;28;20049;-34
2021/12/11 04:02:18;;;;;;;22.30;13.07;;;-2.40;99.90;;;;;;5011057;28;20045;-33
2021/12/11 04:04:47;;;;;;;21.15;12.27;;;-2.40;99.90;;;;;;5011816;28;20124;-35
2021/12/11 04:07:15;;;;;;;20.02;12.32;;;-2.40;99.90;;;;;;5012524;28;20053;-35
2021/12/11 04:09:42;;;;;;;25.30;14.68;;;-2.40;99.90;;;;;;5012084;28;20053;-35
2021/12/11 04:12:10;;;;;;;28.92;15.77;;;-2.40;99.90;;;;;;4997390;28;20548;-34
2021/12/11 04:14:38;;;;;;;28.77;16.17;;;-2.40;99.90;;;;;;5008389;28;20046;-35
2021/12/11 04:17:05;;;;;;;20.75;13.05;;;-2.40;99.90;;;;;;5015176;28;20062;-35
2021/12/11 04:19:34;;;;;;;22.00;13.38;;;-2.40;99.90;;;;;;5014689;28;20057;-35
2021/12/11 04:22:01;;;;;;;19.48;12.57;;;-2.40;99.90;;;;;;5015183;28;20104;-37
2021/12/11 04:24:30;;;;;;;19.77;12.15;;;-2.40;99.90;;;;;;4998587;28;20057;-34
2021/12/11 04:26:58;;;;;;;21.15;12.27;;;-2.40;99.90;;;;;;4998386;28;20051;-34
2021/12/11 04:29:25;;;;;;;22.08;13.48;;;-2.40;99.90;;;;;;5015383;28;20136;-36
2021/12/11 04:31:52;;;;;;;18.90;11.73;;;-2.40;99.90;;;;;;5015661;28;20054;-35
2021/12/11 04:34:20;;;;;;;20.45;13.10;;;-2.50;99.90;;;;;;5015831;28;20054;-35
2021/12/11 04:36:50;;;;;;;21.20;12.32;;;-2.50;99.90;;;;;;5015537;28;20465;-34
2021/12/11 04:39:18;;;;;;;23.60;12.32;;;-2.50;99.90;;;;;;4997989;28;20065;-34
2021/12/11 04:41:52;;;;;;;25.33;14.15;;;-2.50;99.90;;;;;;4998323;28;20559;-36
2021/12/11 04:44:21;;;;;;;27.55;14.15;;;-2.50;99.90;;;;;;4998039;28;20076;-35
2021/12/11 04:46:49;;;;;;;22.55;13.88;;;-2.50;99.90;;;;;;5015492;28;20355;-34
2021/12/11 04:49:25;;;;;;;24.27;13.98;;;-2.50;99.90;;;;;;4989063;28;20092;-36
2021/12/11 04:52:02;;;;;;;23.33;14.43;;;-2.50;99.90;;;;;;5015383;28;20524;-35
2021/12/11 04:54:40;;;;;;;27.65;14.70;;;-2.50;99.90;;;;;;5015352;28;20054;-34
2021/12/11 05:00:05;;;;;;;25.90;14.87;;;-2.60;99.90;;;;;;5012190;28;20065;-35
2021/12/11 05:02:59;;;;;;;29.77;16.83;;;-2.60;99.90;;;;;;4996750;28;20387;-35
2021/12/11 05:05:43;;;;;;;36.05;18.92;;;-2.60;99.90;;;;;;5015153;28;20590;-35
2021/12/11 05:09:00;;;;;;;28.05;15.60;;;-2.50;99.90;;;;;;4996972;28;20057;-38
2021/12/11 05:11:34;;;;;;;38.28;21.10;;;-2.50;99.90;;;;;;5008173;28;20050;-36
2021/12/11 05:14:01;;;;;;;40.10;22.10;;;-2.50;99.90;;;;;;4997788;28;20361;-34
2021/12/11 05:16:28;;;;;;;38.20;20.25;;;-2.50;99.90;;;;;;4997771;28;20062;-34
2021/12/11 05:18:55;;;;;;;34.13;19.33;;;-2.50;99.90;;;;;;4997658;28;20502;-34
2021/12/11 05:21:22;;;;;;;37.60;21.13;;;-2.50;99.90;;;;;;4997141;28;20132;-35
2021/12/11 05:23:51;;;;;;;45.80;24.27;;;-2.50;99.90;;;;;;4996029;28;20121;-35
2021/12/11 05:26:19;;;;;;;41.65;22.25;;;-2.40;99.90;;;;;;5014513;28;20054;-35
2021/12/11 05:28:47;;;;;;;55.65;27.23;;;-2.40;99.90;;;;;;4997637;28;20405;-35
2021/12/11 05:31:14;;;;;;;50.42;26.27;;;-2.40;99.90;;;;;;5014193;28;20498;-34
2021/12/11 05:33:41;;;;;;;50.70;26.08;;;-2.40;99.90;;;;;;5013901;28;20046;-35
2021/12/11 05:36:09;;;;;;;54.60;26.10;;;-2.30;99.90;;;;;;4997064;28;20062;-34
2021/12/11 05:38:39;;;;;;;50.00;25.88;;;-2.20;99.90;;;;;;4996918;28;20417;-35
2021/12/11 05:41:09;;;;;;;45.05;23.58;;;-2.10;99.90;;;;;;5013973;28;20049;-36
2021/12/11 05:43:36;;;;;;;43.53;23.85;;;-2.10;99.90;;;;;;5011722;28;20038;-34
2021/12/11 05:46:03;;;;;;;36.42;18.77;;;-2.10;99.90;;;;;;4996235;28;20132;-38
2021/12/11 05:48:31;;;;;;;36.40;21.17;;;-2.10;99.90;;;;;;5010592;28;20089;-35
2021/12/11 05:51:00;;;;;;;37.85;22.23;;;-2.10;99.90;;;;;;4992804;28;20380;-34
2021/12/11 05:53:30;;;;;;;42.78;24.60;;;-2.20;99.90;;;;;;4996216;28;20062;-34
2021/12/11 05:55:58;;;;;;;35.75;20.10;;;-2.20;99.90;;;;;;4996208;28;20053;-36
2021/12/11 05:58:45;;;;;;;40.13;21.40;;;-2.20;99.90;;;;;;5013171;28;20049;-36
2021/12/11 06:01:12;;;;;;;35.75;21.15;;;-2.30;99.90;;;;;;5013822;28;20057;-36
2021/12/11 06:03:39;;;;;;;33.83;19.98;;;-2.30;99.90;;;;;;5013237;28;20528;-38
2021/12/11 06:06:06;;;;;;;39.45;22.58;;;-2.30;99.90;;;;;;4996652;28;20165;-35
2021/12/11 06:08:33;;;;;;;43.45;24.20;;;-2.30;99.90;;;;;;4997896;28;20061;-35
2021/12/11 06:11:00;;;;;;;37.33;20.35;;;-2.30;99.90;;;;;;4995989;28;20395;-34
2021/12/11 06:13:30;;;;;;;41.22;21.77;;;-2.40;99.90;;;;;;4996138;28;20085;-34
2021/12/11 06:15:57;;;;;;;39.80;20.40;;;-2.40;99.90;;;;;;5013835;28;20050;-37
2021/12/11 06:18:24;;;;;;;43.33;22.85;;;-2.40;99.90;;;;;;4996603;28;20136;-34
2021/12/11 06:20:52;;;;;;;36.95;21.15;;;-2.40;99.90;;;;;;4995945;28;20104;-34
2021/12/11 06:23:21;;;;;;;49.05;21.20;;;-2.40;99.90;;;;;;4995931;28;20100;-35
2021/12/11 06:25:49;;;;;;;33.00;20.17;;;-2.40;99.90;;;;;;5013759;28;20053;-36
2021/12/11 06:28:16;;;;;;;43.55;22.20;;;-2.40;99.90;;;;;;5012977;28;20053;-35
2021/12/11 06:30:45;;;;;;;45.38;21.13;;;-2.50;99.90;;;;;;5013016;28;20532;-34
2021/12/11 06:33:12;;;;;;;39.00;21.40;;;-2.50;99.90;;;;;;5012768;28;20053;-34
2021/12/11 06:35:41;;;;;;;33.20;19.38;;;-2.50;99.90;;;;;;4995125;28;20050;-37
2021/12/11 06:38:09;;;;;;;38.95;20.73;;;-2.30;99.90;;;;;;4995667;28;20042;-34
2021/12/11 06:40:36;;;;;;;37.05;21.48;;;-2.50;99.90;;;;;;5012974;28;20121;-35
2021/12/11 06:43:03;;;;;;;38.20;21.17;;;-2.50;99.90;;;;;;4995981;28;20100;-34
2021/12/11 06:45:30;;;;;;;36.03;20.08;;;-2.50;99.90;;;;;;5013357;28;20045;-34
2021/12/11 06:47:58;;;;;;;30.92;18.23;;;-2.50;99.90;;;;;;5013303;28;20054;-38
2021/12/11 06:50:25;;;;;;;33.28;17.55;;;-2.50;99.90;;;;;;5012416;28;20085;-34
2021/12/11 06:52:53;;;;;;;38.35;23.08;;;-2.50;99.90;;;;;;4995054;28;20089;-36
2021/12/11 06:55:20;;;;;;;42.40;22.98;;;-2.60;99.90;;;;;;5012765;28;20128;-34
2021/12/11 06:57:48;;;;;;;35.05;20.40;;;-2.60;99.90;;;;;;5011541;28;20128;-34
2021/12/11 07:00:16;;;;;;;37.10;20.90;;;-2.60;99.90;;;;;;4995258;28;20072;-35
2021/12/11 07:02:43;;;;;;;31.75;17.85;;;-2.60;99.90;;;;;;4995224;28;20053;-34
2021/12/11 07:05:11;;;;;;;39.08;21.52;;;-2.60;99.90;;;;;;4995014;28;20574;-35
2021/12/11 07:07:40;;;;;;;34.22;18.75;;;-2.60;99.90;;;;;;5013623;28;20108;-35
2021/12/11 07:10:09;;;;;;;42.92;20.48;;;-2.60;99.90;;;;;;5012494;28;20050;-35
2021/12/11 07:12:36;;;;;;;44.38;24.40;;;-2.60;99.90;;;;;;5012820;28;20053;-35
2021/12/11 07:15:04;;;;;;;43.85;23.63;;;-2.70;99.90;;;;;;4995755;28;20494;-34
2021/12/11 07:17:31;;;;;;;40.90;23.60;;;-2.60;99.90;;;;;;5012716;28;20053;-35
2021/12/11 07:19:58;;;;;;;49.13;25.25;;;-2.70;99.90;;;;;;4994065;28;20144;-34
2021/12/11 07:22:26;;;;;;;33.92;18.83;;;-2.60;99.90;;;;;;4994403;28;20061;-35
2021/12/11 07:24:56;;;;;;;38.33;20.35;;;-2.70;99.90;;;;;;5012441;28;20037;-35
2021/12/11 07:27:23;;;;;;;31.42;19.35;;;-2.70;99.90;;;;;;5011838;28;20561;-37
2021/12/11 07:29:50;;;;;;;39.15;20.95;;;-2.70;99.90;;;;;;4994473;28;20133;-34
2021/12/11 07:32:17;;;;;;;44.85;23.52;;;-2.70;99.90;;;;;;4994175;28;20176;-35
2021/12/11 07:34:44;;;;;;;36.97;21.67;;;-2.70;99.90;;;;;;5011589;28;20556;-34
2021/12/11 07:37:11;;;;;;;40.45;21.45;;;-2.70;99.90;;;;;;5011851;28;20155;-34
2021/12/11 07:39:39;;;;;;;41.78;22.00;;;-2.70;99.90;;;;;;5012598;28;20085;-35
2021/12/11 07:42:06;;;;;;;42.95;23.95;;;-2.70;99.90;;;;;;5011559;28;20137;-36
2021/12/11 07:44:33;;;;;;;44.50;23.60;;;-2.70;99.90;;;;;;4993135;28;20479;-34
2021/12/11 07:47:01;;;;;;;35.67;19.92;;;-2.70;99.90;;;;;;5001495;28;20124;-34
2021/12/11 07:49:28;;;;;;;42.97;22.60;;;-2.80;99.90;;;;;;5000730;28;20505;-35
2021/12/11 07:51:55;;;;;;;42.08;23.80;;;-2.70;99.90;;;;;;5000726;28;20062;-35
2021/12/11 07:54:22;;;;;;;51.72;25.15;;;-2.70;99.90;;;;;;5018396;28;20049;-34
2021/12/11 07:56:53;;;;;;;53.08;25.88;;;-2.70;99.90;;;;;;5001170;28;20124;-35
2021/12/11 07:59:20;;;;;;;54.35;28.58;;;-2.80;99.90;;;;;;5018053;28;20498;-35
2021/12/11 08:01:48;;;;;;;51.03;28.08;;;-2.70;99.90;;;;;;5018758;28;20117;-35
2021/12/11 08:04:15;;;;;;;51.50;27.52;;;-2.70;99.90;;;;;;5018251;28;20100;-34
2021/12/11 08:06:42;;;;;;;45.90;27.02;;;-2.70;99.90;;;;;;5017759;28;20077;-38
2021/12/11 08:09:10;;;;;;;46.47;27.42;;;-2.70;99.90;;;;;;5016336;28;20089;-35
2021/12/11 08:11:37;;;;;;;53.17;29.50;;;-2.70;99.90;;;;;;5016887;28;20391;-35
2021/12/11 08:14:06;;;;;;;57.78;31.63;;;-2.70;99.90;;;;;;5000217;28;20145;-35
2021/12/11 08:16:43;;;;;;;49.17;27.38;;;-2.70;99.90;;;;;;5018936;28;20056;-34
2021/12/11 08:19:10;;;;;;;54.65;29.20;;;-2.70;99.90;;;;;;5007526;28;20050;-34
2021/12/11 08:21:37;;;;;;;45.20;25.33;;;-2.70;99.90;;;;;;4996021;28;20375;-34
2021/12/11 08:24:06;;;;;;;62.35;28.08;;;-2.70;99.90;;;;;;4994637;28;20054;-35
2021/12/11 08:26:34;;;;;;;49.17;27.60;;;-2.60;99.90;;;;;;5011329;28;20046;-34
2021/12/11 08:29:01;;;;;;;47.55;26.48;;;-2.60;99.90;;;;;;5015363;28;20054;-35
2021/12/11 08:31:29;;;;;;;45.47;25.33;;;-2.60;99.90;;;;;;4991717;28;20694;-34
2021/12/11 08:33:56;;;;;;;58.95;31.48;;;-2.50;99.90;;;;;;5013833;28;20050;-37
2021/12/11 08:36:23;;;;;;;57.10;31.50;;;-2.60;99.90;;;;;;5008250;28;20137;-35
2021/12/11 08:38:50;;;;;;;49.85;29.10;;;-2.50;99.90;;;;;;4987565;28;20060;-35
2021/12/11 08:41:22;;;;;;;73.22;38.50;;;-2.50;99.90;;;;;;4990088;28;21788;-37
2021/12/11 08:43:56;;;;;;;70.28;38.47;;;-2.50;99.90;;;;;;4989018;28;20379;-35
2021/12/11 08:46:27;;;;;;;66.00;39.35;;;-2.40;99.90;;;;;;4995785;28;20050;-34
2021/12/11 08:48:56;;;;;;;73.38;40.97;;;-2.40;99.90;;;;;;5017708;28;20472;-35
2021/12/11 08:51:26;;;;;;;74.22;42.13;;;-2.30;99.90;;;;;;5015952;28;20079;-37
2021/12/11 08:53:53;;;;;;;68.53;36.78;;;-2.30;99.90;;;;;;5009132;28;20053;-34
2021/12/11 08:56:20;;;;;;;66.70;37.65;;;-2.20;99.90;;;;;;5009383;28;20435;-34
2021/12/11 08:58:48;;;;;;;62.90;34.30;;;-2.20;99.90;;;;;;4991077;28;20463;-34
2021/12/11 09:01:17;;;;;;;75.15;38.75;;;-2.10;99.90;;;;;;5010561;28;20542;-35
2021/12/11 09:03:47;;;;;;;54.03;31.70;;;-2.10;99.90;;;;;;5013061;28;20088;-35
2021/12/11 09:06:17;;;;;;;57.40;30.88;;;-2.00;99.90;;;;;;5012436;28;20132;-39
2021/12/11 09:08:46;;;;;;;57.13;31.40;;;-2.00;99.90;;;;;;4995072;28;20056;-35
2021/12/11 09:11:18;;;;;;;71.50;33.95;;;-1.90;99.90;;;;;;5011515;28;20092;-35
2021/12/11 09:13:47;;;;;;;62.78;32.42;;;-1.80;99.90;;;;;;5012270;28;21275;-35
2021/12/11 09:16:16;;;;;;;60.83;33.00;;;-1.80;99.90;;;;;;5015105;28;20552;-35
2021/12/11 09:18:45;;;;;;;94.70;55.88;;;-1.70;99.90;;;;;;4997306;28;20057;-35
2021/12/11 09:21:15;;;;;;;81.93;45.55;;;-1.60;99.90;;;;;;4997654;28;20049;-37
2021/12/11 09:23:44;;;;;;;91.07;51.72;;;-1.50;99.90;;;;;;5011939;28;20105;-35
2021/12/11 09:26:13;;;;;;;91.25;49.13;;;-1.40;99.90;;;;;;4996668;28;20068;-37
2021/12/11 09:28:43;;;;;;;133.15;72.05;;;-1.40;99.90;;;;;;5013106;28;20050;-37
2021/12/11 09:31:13;;;;;;;84.05;45.80;;;-1.30;99.90;;;;;;5011977;28;20585;-35
2021/12/11 09:33:45;;;;;;;108.50;59.10;;;-1.10;99.90;;;;;;5013249;28;20556;-35
2021/12/11 09:36:15;;;;;;;100.53;51.88;;;-1.00;99.90;;;;;;5013830;28;20050;-37
2021/12/11 09:38:45;;;;;;;94.18;49.35;;;-0.90;99.90;;;;;;5012325;28;20100;-36
2021/12/11 09:41:21;;;;;;;80.50;43.30;;;-0.80;99.90;;;;;;5012457;28;20054;-35
2021/12/11 09:43:51;;;;;;;89.60;46.05;;;-0.60;99.90;;;;;;4995943;28;20498;-35
2021/12/11 09:46:20;;;;;;;90.38;47.92;;;-0.50;99.90;;;;;;5014184;28;20571;-35
2021/12/11 09:48:48;;;;;;;82.00;42.67;;;-0.40;99.90;;;;;;4995091;28;20057;-36
2021/12/11 09:51:17;;;;;;;79.32;43.50;;;-0.30;99.90;;;;;;4996300;28;20060;-36
2021/12/11 09:53:48;;;;;;;83.25;41.80;;;-0.20;99.90;;;;;;5005329;28;20045;-35
2021/12/11 09:56:19;;;;;;;65.85;37.67;;;-0.10;99.90;;;;;;5009199;28;20482;-37
2021/12/11 09:58:46;;;;;;;73.90;39.63;;;0.10;99.90;;;;;;5006097;28;20058;-35
2021/12/11 10:01:16;;;;;;;75.07;40.20;;;0.10;99.90;;;;;;4986162;28;20081;-36
2021/12/11 10:03:47;;;;;;;77.07;40.40;;;0.20;99.90;;;;;;5002427;28;20470;-35
2021/12/11 10:06:27;;;;;;;81.07;47.33;;;0.30;99.90;;;;;;4988905;28;20076;-36
2021/12/11 10:09:09;;;;;;;77.78;40.92;;;0.40;99.90;;;;;;4991030;28;20061;-35
2021/12/11 10:11:36;;;;;;;;;;;0.50;99.90;;;;;;5006873;28;20046;-37
2021/12/11 10:14:05;;;;;;;67.20;38.47;;;0.60;99.90;;;;;;4985794;28;19929;-36
2021/12/11 10:16:35;;;;;;;69.22;38.60;;;0.60;99.90;;;;;;5005565;28;20053;-36
2021/12/11 10:19:03;;;;;;;69.85;39.60;;;0.70;99.90;;;;;;4986463;28;20042;-37
2021/12/11 10:21:32;;;;;;;78.45;40.90;;;0.80;99.90;;;;;;5004781;28;20081;-36
2021/12/11 10:24:01;;;;;;;69.40;39.80;;;0.90;99.90;;;;;;4988347;28;20064;-36
2021/12/11 10:26:28;;;;;;;72.47;38.85;;;0.90;99.90;;;;;;5009384;28;20078;-37
2021/12/11 10:28:56;;;;;;;79.65;42.65;;;1.00;99.90;;;;;;4990314;28;20052;-36
2021/12/11 10:31:27;;;;;;;78.68;42.83;;;1.10;99.90;;;;;;5010763;28;20498;-36
2021/12/11 10:33:55;;;;;;;61.75;36.58;;;1.20;99.90;;;;;;4992475;28;20046;-36
2021/12/11 10:36:26;;;;;;;64.30;38.28;;;1.20;99.90;;;;;;5010334;28;20402;-37
2021/12/11 10:38:53;;;;;;;66.32;37.17;;;1.30;99.90;;;;;;4991016;28;20073;-36
2021/12/11 10:41:20;;;;;;;72.13;40.92;;;1.40;99.90;;;;;;5004553;28;20465;-36
2021/12/11 10:43:53;;;;;;;77.88;41.33;;;1.50;99.90;;;;;;4993639;28;20132;-36
2021/12/11 10:46:21;;;;;;;64.78;38.10;;;1.50;99.90;;;;;;4993609;28;20125;-38
2021/12/11 10:48:48;;;;;;;64.55;38.70;;;1.60;99.90;;;;;;5010812;28;20058;-35
2021/12/11 10:51:18;;;;;;;63.65;39.08;;;1.70;99.90;;;;;;4993490;28;20081;-36
2021/12/11 10:53:46;;;;;;;72.18;41.03;;;1.70;99.90;;;;;;5006207;28;20054;-37
2021/12/11 10:56:14;;;;;;;70.45;38.75;;;1.80;99.90;;;;;;4995565;28;20056;-36
2021/12/11 10:58:43;;;;;;;68.03;38.78;;;1.80;99.90;;;;;;4999188;28;20082;-36
2021/12/11 11:01:11;;;;;;;65.38;37.80;;;1.90;99.90;;;;;;5004158;28;20103;-36
2021/12/11 11:03:40;;;;;;;66.30;38.53;;;2.00;99.90;;;;;;5011176;28;20402;-38
2021/12/11 11:06:07;;;;;;;74.07;40.80;;;2.00;99.90;;;;;;4985834;28;20135;-35
2021/12/11 11:08:35;;;;;;;68.00;38.25;;;2.10;99.90;;;;;;4991537;28;20085;-36
2021/12/11 11:11:05;;;;;;;69.47;39.22;;;2.20;99.90;;;;;;5011444;28;20490;-35
2021/12/11 11:13:36;;;;;;;62.50;37.15;;;2.30;99.90;;;;;;4995378;28;20046;-35
2021/12/11 11:16:03;;;;;;;65.03;37.42;;;2.30;99.90;;;;;;5011522;28;20508;-35
2021/12/11 11:18:30;;;;;;;69.60;38.25;;;2.40;99.90;;;;;;5011270;28;20053;-35
2021/12/11 11:20:59;;;;;;;65.43;37.65;;;2.40;99.90;;;;;;4993159;28;20136;-34
2021/12/11 11:23:26;;;;;;;59.38;35.97;;;2.50;99.90;;;;;;5010665;28;20104;-35
2021/12/11 11:25:56;;;;;;;61.15;37.47;;;2.50;99.90;;;;;;5012791;28;20049;-35
2021/12/11 11:28:24;;;;;;;63.45;36.45;;;2.60;99.90;;;;;;4994751;28;20482;-35
2021/12/11 11:30:53;;;;;;;66.25;37.40;;;2.70;99.90;;;;;;5010832;28;20085;-35
2021/12/11 11:33:20;;;;;;;64.22;36.60;;;2.70;99.90;;;;;;4992467;28;20142;-40
2021/12/11 11:35:48;;;;;;;61.25;34.10;;;2.80;99.90;;;;;;5008799;28;20056;-39
2021/12/11 11:38:18;;;;;;;59.03;35.42;;;2.80;99.90;;;;;;4995439;28;21461;-35
2021/12/11 11:40:47;;;;;;;57.20;35.13;;;2.90;99.90;;;;;;5010449;28;20057;-34
2021/12/11 11:43:16;;;;;;;60.05;35.65;;;3.00;99.90;;;;;;5012187;28;20054;-38
2021/12/11 11:45:43;;;;;;;59.13;34.45;;;3.00;99.90;;;;;;5011550;28;20049;-36
2021/12/11 11:48:10;;;;;;;55.13;31.85;;;3.10;99.90;;;;;;4984561;28;20085;-34
2021/12/11 11:50:39;;;;;;;61.67;34.75;;;3.10;99.90;;;;;;5011351;28;20054;-39
2021/12/11 11:53:06;;;;;;;61.30;34.42;;;3.10;99.90;;;;;;4995064;28;20397;-35
2021/12/11 11:55:34;;;;;;;66.00;34.65;;;3.10;99.90;;;;;;4994306;28;20052;-35
2021/12/11 11:58:01;;;;;;;66.40;35.42;;;3.10;99.90;;;;;;4994989;28;20053;-38
2021/12/11 12:00:31;;;;;;;60.05;34.17;;;3.10;99.90;;;;;;5001588;28;20100;-35
2021/12/11 12:02:58;;;;;;;63.97;33.72;;;3.20;99.90;;;;;;5006278;28;20078;-36
2021/12/11 12:05:26;;;;;;;57.15;31.33;;;3.30;99.90;;;;;;4992852;28;20514;-38
2021/12/11 12:07:53;;;;;;;64.55;35.25;;;3.30;99.90;;;;;;5006437;28;20108;-36
2021/12/11 12:10:21;;;;;;;63.95;33.55;;;3.40;99.90;;;;;;5009382;28;20489;-36
2021/12/11 12:12:49;;;;;;;66.05;34.38;;;3.40;99.90;;;;;;5009920;28;20053;-35
2021/12/11 12:15:17;;;;;;;73.25;35.65;;;3.50;99.90;;;;;;4991539;28;20049;-36
2021/12/11 12:17:46;;;;;;;66.00;33.22;;;3.50;99.90;;;;;;5009899;28;20135;-38
2021/12/11 12:20:14;;;;;;;66.63;33.28;;;3.50;99.90;;;;;;4998630;28;20410;-36
2021/12/11 12:22:41;;;;;;;67.85;34.17;;;3.60;99.90;;;;;;5010444;28;20125;-36
2021/12/11 12:25:09;;;;;;;64.65;35.03;;;3.60;99.90;;;;;;4985550;28;20590;-35
2021/12/11 12:27:36;;;;;;;62.50;34.63;;;3.70;99.90;;;;;;5003300;28;20089;-38
2021/12/11 12:30:06;;;;;;;59.40;32.80;;;3.70;99.90;;;;;;5002559;28;20093;-39
2021/12/11 12:32:35;;;;;;;56.60;31.60;;;3.70;99.90;;;;;;4986750;28;20429;-36
2021/12/11 12:35:06;;;;;;;63.00;35.92;;;3.70;99.90;;;;;;5001637;28;20140;-38
2021/12/11 12:37:33;;;;;;;65.03;32.80;;;3.70;99.90;;;;;;4985307;28;20058;-37
2021/12/11 12:40:00;;;;;;;63.03;32.78;;;3.70;99.90;;;;;;5001618;28;20493;-37
2021/12/11 12:42:32;;;;;;;61.03;32.92;;;3.80;99.90;;;;;;4987346;28;20455;-39